createdAt,value
2018-12-29T00:00:43.686Z,75.28
2018-12-29T00:03:12.836Z,75.16
2018-12-29T00:05:41.897Z,75.16
2018-12-29T00:08:10.957Z,75.13
2018-12-29T00:10:40.038Z,75.14
2018-12-29T00:13:11.120Z,75.14
2018-12-29T00:15:40.180Z,75.09
2018-12-29T00:18:09.265Z,75.05
2018-12-29T00:20:38.327Z,74.98
2018-12-29T00:23:07.396Z,74.98
2018-12-29T00:25:36.531Z,75.05
2018-12-29T00:28:05.600Z,75.10
2018-12-29T00:30:34.649Z,75.05
2018-12-29T00:33:03.731Z,75.01
2018-12-29T00:35:32.797Z,74.95
2018-12-29T00:38:01.857Z,75.01
2018-12-29T00:40:31.176Z,75.01
2018-12-29T00:43:00.227Z,75.07
2018-12-29T00:45:29.296Z,75.12
2018-12-29T00:47:58.428Z,75.16
2018-12-29T00:50:27.480Z,75.29
2018-12-29T00:52:56.628Z,75.37
2018-12-29T00:55:25.719Z,75.46
2018-12-29T00:57:54.778Z,75.47
2018-12-29T01:00:23.838Z,75.44
2018-12-29T01:03:00.702Z,75.42
2018-12-29T01:05:29.756Z,75.40
2018-12-29T01:07:59.735Z,75.42
2018-12-29T01:10:28.809Z,75.30
2018-12-29T01:13:10.831Z,75.15
2018-12-29T01:15:40.137Z,74.98
2018-12-29T01:18:09.209Z,74.88
2018-12-29T01:20:38.280Z,74.95
2018-12-29T01:23:07.376Z,75.02
2018-12-29T01:25:36.434Z,75.07
2018-12-29T01:28:05.487Z,75.17
2018-12-29T01:30:34.592Z,75.32
2018-12-29T01:33:12.069Z,75.49
2018-12-29T01:35:41.158Z,75.54
2018-12-29T01:38:10.218Z,75.62
2018-12-29T01:40:39.267Z,75.66
2018-12-29T01:43:08.370Z,75.69
2018-12-29T01:45:37.423Z,75.68
2018-12-29T01:48:06.475Z,75.60
2018-12-29T01:50:35.577Z,75.55
2018-12-29T01:55:58.322Z,75.47
2018-12-29T01:58:27.388Z,75.48
2018-12-29T02:00:56.716Z,75.41
2018-12-29T02:03:25.890Z,75.36
2018-12-29T02:05:54.942Z,75.39
2018-12-29T02:08:24.009Z,75.45
2018-12-29T02:10:53.081Z,75.43
2018-12-29T02:13:22.147Z,75.39
2018-12-29T02:15:51.202Z,75.34
2018-12-29T02:18:20.283Z,75.32
2018-12-29T02:20:49.335Z,75.33
2018-12-29T02:23:18.383Z,75.42
2018-12-29T02:25:47.472Z,75.51
2018-12-29T02:28:16.530Z,75.52
2018-12-29T02:30:45.591Z,75.53
2018-12-29T02:33:14.688Z,75.55
2018-12-29T02:35:43.758Z,75.48
2018-12-29T02:38:12.822Z,75.58
2018-12-29T02:40:41.984Z,75.56
2018-12-29T02:46:05.637Z,75.50
2018-12-29T02:48:34.702Z,75.45
2018-12-29T02:51:03.766Z,75.45
2018-12-29T02:53:32.844Z,75.44
2018-12-29T02:56:01.910Z,75.51
2018-12-29T02:58:30.964Z,75.60
2018-12-29T03:01:00.045Z,75.54
2018-12-29T03:03:29.100Z,75.52
2018-12-29T03:05:58.220Z,75.49
2018-12-29T03:08:27.397Z,75.51
2018-12-29T03:10:56.444Z,75.53
2018-12-29T03:13:25.497Z,75.51
2018-12-29T03:15:54.573Z,75.53
2018-12-29T03:18:23.628Z,75.53
2018-12-29T03:20:52.696Z,75.58
2018-12-29T03:23:21.787Z,75.57
2018-12-29T03:25:50.843Z,75.54
2018-12-29T03:28:19.902Z,75.57
2018-12-29T03:30:49.021Z,75.62
2018-12-29T03:33:30.410Z,75.56
2018-12-29T03:35:59.493Z,75.65
2018-12-29T03:38:28.555Z,75.59
2018-12-29T03:40:57.612Z,75.57
2018-12-29T03:43:26.699Z,75.61
2018-12-29T03:45:55.759Z,75.60
2018-12-29T03:48:24.810Z,75.48
2018-12-29T03:50:53.911Z,75.36
2018-12-29T03:53:22.966Z,75.31
2018-12-29T03:55:52.020Z,75.25
2018-12-29T03:58:21.114Z,75.24
2018-12-29T04:00:50.167Z,75.19
2018-12-29T04:03:19.224Z,75.22
2018-12-29T04:05:48.303Z,75.24
2018-12-29T04:08:17.359Z,75.29
2018-12-29T04:10:46.414Z,75.32
2018-12-29T04:13:15.536Z,75.37
2018-12-29T04:15:44.625Z,75.39
2018-12-29T04:18:13.645Z,75.44
2018-12-29T04:20:42.733Z,75.58
2018-12-29T04:23:17.589Z,75.65
2018-12-29T04:25:46.669Z,75.66
2018-12-29T04:28:15.717Z,75.65
2018-12-29T04:30:44.775Z,75.61
2018-12-29T04:33:13.901Z,75.57
2018-12-29T04:35:42.949Z,75.52
2018-12-29T04:38:12.005Z,75.44
2018-12-29T04:40:41.169Z,75.50
2018-12-29T04:43:20.259Z,75.48
2018-12-29T04:45:49.351Z,75.54
2018-12-29T04:48:18.402Z,75.53
2018-12-29T04:50:47.452Z,75.57
2018-12-29T04:53:16.580Z,75.54
2018-12-29T04:55:45.627Z,75.54
2018-12-29T04:58:14.677Z,75.52
2018-12-29T05:00:44.075Z,75.48
2018-12-29T05:03:37.646Z,75.45
2018-12-29T05:06:06.731Z,75.33
2018-12-29T05:08:35.786Z,75.27
2018-12-29T05:11:04.852Z,75.09
2018-12-29T05:16:37.496Z,75.04
2018-12-29T05:19:06.583Z,75.08
2018-12-29T05:21:35.629Z,74.99
2018-12-29T05:24:04.835Z,74.94
2018-12-29T05:26:34.278Z,74.90
2018-12-29T05:29:04.940Z,74.86
2018-12-29T05:31:34.002Z,74.84
2018-12-29T05:34:03.112Z,74.77
2018-12-29T05:36:32.170Z,74.67
2018-12-29T05:39:01.239Z,74.61
2018-12-29T05:41:30.537Z,74.65
2018-12-29T05:43:59.609Z,74.52
2018-12-29T05:46:28.667Z,74.37
2018-12-29T05:48:57.747Z,74.33
2018-12-29T05:51:26.820Z,74.22
2018-12-29T05:53:55.879Z,74.31
2018-12-29T05:56:24.978Z,74.33
2018-12-29T05:59:02.430Z,74.33
2018-12-29T06:01:34.874Z,74.37
2018-12-29T06:04:10.995Z,74.43
2018-12-29T06:06:35.390Z,74.42
2018-12-29T06:09:04.582Z,74.45
2018-12-29T06:11:33.629Z,74.48
2018-12-29T06:14:04.158Z,74.51
2018-12-29T06:16:33.213Z,74.55
2018-12-29T06:19:02.267Z,74.52
2018-12-29T06:21:31.342Z,74.52
2018-12-29T06:24:00.499Z,74.55
2018-12-29T06:26:29.550Z,74.54
2018-12-29T06:28:58.668Z,74.56
2018-12-29T06:31:27.730Z,74.52
2018-12-29T06:33:56.786Z,74.59
2018-12-29T06:36:25.910Z,74.57
2018-12-29T06:38:54.962Z,74.59
2018-12-29T06:41:24.017Z,74.61
2018-12-29T06:43:53.114Z,74.67
2018-12-29T06:46:22.173Z,74.73
2018-12-29T06:48:51.229Z,74.82
2018-12-29T06:51:20.595Z,74.94
2018-12-29T06:53:49.683Z,75.01
2018-12-29T06:56:18.754Z,75.12
2018-12-29T06:58:47.853Z,75.25
2018-12-29T07:01:16.910Z,75.36
2018-12-29T07:03:46.751Z,75.37
2018-12-29T07:06:15.142Z,75.43
2018-12-29T07:08:44.204Z,75.52
2018-12-29T07:11:13.256Z,75.56
2018-12-29T07:13:42.331Z,75.65
2018-12-29T07:16:11.408Z,75.83
2018-12-29T07:18:40.461Z,75.96
2018-12-29T07:21:09.584Z,76.16
2018-12-29T07:23:38.680Z,76.36
2018-12-29T07:26:07.701Z,76.53
2018-12-29T07:28:36.794Z,76.76
2018-12-29T07:31:05.855Z,76.85
2018-12-29T07:33:34.936Z,77.09
2018-12-29T07:36:04.025Z,77.08
2018-12-29T07:38:33.091Z,77.08
2018-12-29T07:41:02.161Z,77.17
2018-12-29T07:43:36.640Z,77.19
2018-12-29T07:46:05.714Z,77.06
2018-12-29T07:48:34.820Z,76.95
2018-12-29T07:51:03.912Z,76.86
2018-12-29T07:53:32.965Z,76.87
2018-12-29T07:56:02.028Z,76.83
2018-12-29T07:58:31.131Z,76.75
2018-12-29T08:01:00.190Z,76.64
2018-12-29T08:03:29.262Z,76.53
2018-12-29T08:05:58.383Z,76.35
2018-12-29T08:08:27.440Z,76.23
2018-12-29T08:10:56.491Z,76.14
2018-12-29T08:13:29.796Z,75.98
2018-12-29T08:15:58.845Z,75.89
2018-12-29T08:18:27.897Z,75.75
2018-12-29T08:20:56.973Z,75.61
2018-12-29T08:23:26.022Z,75.41
2018-12-29T08:25:55.076Z,75.13
2018-12-29T08:28:24.478Z,75.08
2018-12-29T08:30:53.532Z,75.00
2018-12-29T08:33:22.605Z,75.06
2018-12-29T08:35:51.705Z,74.86
2018-12-29T08:38:20.742Z,74.75
2018-12-29T08:40:49.791Z,74.46
2018-12-29T08:43:27.142Z,74.17
2018-12-29T08:45:56.188Z,73.79
2018-12-29T08:48:25.253Z,73.28
2018-12-29T08:50:54.329Z,73.22
2018-12-29T08:53:23.360Z,73.22
2018-12-29T08:55:52.407Z,73.23
2018-12-29T08:58:21.475Z,73.38
2018-12-29T09:00:50.522Z,73.34
2018-12-29T09:03:19.558Z,73.13
2018-12-29T09:05:48.716Z,73.04
2018-12-29T09:08:17.692Z,72.99
2018-12-29T09:10:46.781Z,73.05
2018-12-29T09:13:29.488Z,72.90
2018-12-29T09:15:58.520Z,72.49
2018-12-29T09:18:27.556Z,72.32
2018-12-29T09:20:56.639Z,72.11
2018-12-29T09:23:25.677Z,72.18
2018-12-29T09:25:54.743Z,71.99
2018-12-29T09:28:23.812Z,72.03
2018-12-29T09:30:52.861Z,71.95
2018-12-29T09:33:21.905Z,72.08
2018-12-29T09:35:50.979Z,72.29
2018-12-29T09:38:20.017Z,72.43
2018-12-29T09:40:49.055Z,72.45
2018-12-29T09:43:18.214Z,72.53
2018-12-29T09:45:47.250Z,72.63
2018-12-29T09:48:16.334Z,72.80
2018-12-29T09:50:45.425Z,72.92
2018-12-29T09:53:16.460Z,73.15
2018-12-29T09:55:45.506Z,73.29
2018-12-29T09:58:14.591Z,73.44
2018-12-29T10:00:43.640Z,73.53
2018-12-29T10:03:12.679Z,73.60
2018-12-29T10:05:41.883Z,73.61
2018-12-29T10:08:10.944Z,73.66
2018-12-29T10:10:39.994Z,73.62
2018-12-29T10:16:03.188Z,73.70
2018-12-29T10:18:32.270Z,73.81
2018-12-29T10:21:01.325Z,73.85
2018-12-29T10:23:30.372Z,74.18
2018-12-29T10:25:59.471Z,74.41
2018-12-29T10:28:28.547Z,74.60
2018-12-29T10:30:57.583Z,74.96
2018-12-29T10:33:26.669Z,75.22
2018-12-29T10:35:55.733Z,75.34
2018-12-29T10:38:24.797Z,75.31
2018-12-29T10:40:53.885Z,75.49
2018-12-29T10:43:22.970Z,75.64
2018-12-29T10:45:52.036Z,75.94
2018-12-29T10:48:21.138Z,76.15
2018-12-29T10:50:50.202Z,76.09
2018-12-29T10:53:19.266Z,76.53
2018-12-29T10:55:48.345Z,76.62
2018-12-29T10:58:17.409Z,76.75
2018-12-29T11:00:46.462Z,76.75
2018-12-29T11:03:16.577Z,76.46
2018-12-29T11:05:45.629Z,76.28
2018-12-29T11:08:14.679Z,76.07
2018-12-29T11:10:43.856Z,75.94
2018-12-29T11:13:12.898Z,75.85
2018-12-29T11:15:41.940Z,75.75
2018-12-29T11:18:11.026Z,75.70
2018-12-29T11:20:40.067Z,75.61
2018-12-29T11:23:09.522Z,75.61
2018-12-29T11:25:38.597Z,75.62
2018-12-29T11:28:07.645Z,75.62
2018-12-29T11:30:36.701Z,75.83
2018-12-29T11:33:05.811Z,75.80
2018-12-29T11:35:34.877Z,75.93
2018-12-29T11:38:03.929Z,76.13
2018-12-29T11:40:33.020Z,76.26
2018-12-29T11:43:02.101Z,76.83
2018-12-29T11:45:31.121Z,77.25
2018-12-29T11:48:00.202Z,77.68
2018-12-29T11:50:29.250Z,77.59
2018-12-29T11:53:05.633Z,77.70
2018-12-29T11:55:34.682Z,77.75
2018-12-29T11:58:03.738Z,77.90
2018-12-29T12:00:32.814Z,78.03
2018-12-29T12:03:01.874Z,78.00
2018-12-29T12:05:30.932Z,77.90
2018-12-29T12:08:00.306Z,77.82
2018-12-29T12:10:29.626Z,77.99
2018-12-29T12:13:04.286Z,77.96
2018-12-29T12:15:33.419Z,77.89
2018-12-29T12:18:02.467Z,78.00
2018-12-29T12:20:31.552Z,78.22
2018-12-29T12:23:00.584Z,77.96
2018-12-29T12:25:29.641Z,77.93
2018-12-29T12:27:58.713Z,77.98
2018-12-29T12:30:27.769Z,77.96
2018-12-29T12:32:56.869Z,78.01
2018-12-29T12:35:25.989Z,78.04
2018-12-29T12:37:55.045Z,78.24
2018-12-29T12:40:24.119Z,78.13
2018-12-29T12:45:48.969Z,78.04
2018-12-29T12:48:18.047Z,78.07
2018-12-29T12:50:47.105Z,78.15
2018-12-29T12:53:16.157Z,78.20
2018-12-29T12:55:45.374Z,78.17
2018-12-29T12:58:14.415Z,78.23
2018-12-29T13:00:43.465Z,78.30
2018-12-29T13:03:30.714Z,78.34
2018-12-29T13:05:59.533Z,78.41
2018-12-29T13:08:28.588Z,78.52
2018-12-29T13:10:57.697Z,78.62
2018-12-29T13:13:26.751Z,78.67
2018-12-29T13:15:55.800Z,78.69
2018-12-29T13:18:24.894Z,78.76
2018-12-29T13:20:53.964Z,78.89
2018-12-29T13:23:23.014Z,78.94
2018-12-29T13:25:52.100Z,78.93
2018-12-29T13:28:21.161Z,79.08
2018-12-29T13:30:50.199Z,79.35
2018-12-29T13:33:19.549Z,79.29
2018-12-29T13:35:48.616Z,79.38
2018-12-29T13:38:17.657Z,79.42
2018-12-29T13:40:46.753Z,79.49
2018-12-29T13:46:23.862Z,79.89
2018-12-29T13:48:52.908Z,79.89
2018-12-29T13:51:22.011Z,79.90
2018-12-29T13:53:51.109Z,80.20
2018-12-29T13:56:20.363Z,80.03
2018-12-29T13:58:49.426Z,80.20
2018-12-29T14:01:18.515Z,80.32
2018-12-29T14:03:48.518Z,80.22
2018-12-29T14:06:17.577Z,80.17
2018-12-29T14:08:46.654Z,80.31
2018-12-29T14:11:15.708Z,80.54
2018-12-29T14:13:44.767Z,80.34
2018-12-29T14:16:13.852Z,80.35
2018-12-29T14:18:42.906Z,80.46
2018-12-29T14:21:11.949Z,80.60
2018-12-29T14:23:41.035Z,80.49
2018-12-29T14:26:10.079Z,80.61
2018-12-29T14:28:39.135Z,80.63
2018-12-29T14:31:08.214Z,80.56
2018-12-29T14:33:37.273Z,80.71
2018-12-29T14:36:06.317Z,80.79
2018-12-29T14:38:35.511Z,80.85
2018-12-29T14:41:05.370Z,80.89
2018-12-29T14:43:34.420Z,80.94
2018-12-29T14:46:03.492Z,80.89
2018-12-29T14:48:35.856Z,81.16
2018-12-29T14:51:01.698Z,81.05
2018-12-29T14:53:30.780Z,81.12
2018-12-29T14:55:59.840Z,81.02
2018-12-29T14:58:28.918Z,81.04
2018-12-29T15:00:58.009Z,81.02
2018-12-29T15:03:27.069Z,81.09
2018-12-29T15:05:56.125Z,80.98
2018-12-29T15:08:25.286Z,81.08
2018-12-29T15:10:54.347Z,81.23
2018-12-29T15:13:23.394Z,81.23
2018-12-29T15:15:52.482Z,81.29
2018-12-29T15:18:21.534Z,81.17
2018-12-29T15:20:50.592Z,81.17
2018-12-29T15:23:19.736Z,81.06
2018-12-29T15:25:48.838Z,81.08
2018-12-29T15:28:17.940Z,81.07
2018-12-29T15:30:47.042Z,81.10
2018-12-29T15:33:18.152Z,81.02
2018-12-29T15:35:47.201Z,81.03
2018-12-29T15:38:16.280Z,80.99
2018-12-29T15:40:45.346Z,81.13
2018-12-29T15:43:14.457Z,81.05
2018-12-29T15:45:43.691Z,81.24
2018-12-29T15:48:12.769Z,81.27
2018-12-29T15:50:41.883Z,81.32
2018-12-29T15:53:12.042Z,81.28
2018-12-29T15:55:41.096Z,81.45
2018-12-29T15:58:10.159Z,81.30
2018-12-29T16:00:39.254Z,81.28
2018-12-29T16:03:08.442Z,81.43
2018-12-29T16:05:37.493Z,81.45
2018-12-29T16:08:06.595Z,81.49
2018-12-29T16:10:36.263Z,81.55
2018-12-29T16:13:08.906Z,81.47
2018-12-29T16:15:37.965Z,81.47
2018-12-29T16:18:07.026Z,81.45
2018-12-29T16:20:36.117Z,81.51
2018-12-29T16:23:05.181Z,81.48
2018-12-29T16:25:34.391Z,81.47
2018-12-29T16:28:03.520Z,81.37
2018-12-29T16:30:32.585Z,81.32
2018-12-29T16:33:01.643Z,81.34
2018-12-29T16:35:31.993Z,81.29
2018-12-29T16:38:01.097Z,81.21
2018-12-29T16:40:30.365Z,81.24
2018-12-29T16:42:59.453Z,81.14
2018-12-29T16:45:28.514Z,81.14
2018-12-29T16:47:57.571Z,81.08
2018-12-29T16:50:26.666Z,81.01
2018-12-29T16:52:55.742Z,81.01
2018-12-29T16:55:24.782Z,81.01
2018-12-29T16:57:53.870Z,81.03
2018-12-29T17:00:22.927Z,80.95
2018-12-29T17:02:51.989Z,80.93
2018-12-29T17:05:21.075Z,80.90
2018-12-29T17:07:50.141Z,80.85
2018-12-29T17:10:19.189Z,80.89
2018-12-29T17:12:48.314Z,80.90
2018-12-29T17:15:17.359Z,80.93
2018-12-29T17:17:46.423Z,80.91
2018-12-29T17:20:15.512Z,80.91
2018-12-29T17:22:44.556Z,80.92
2018-12-29T17:25:13.625Z,81.02
2018-12-29T17:27:42.693Z,80.98
2018-12-29T17:30:11.765Z,80.95
2018-12-29T17:32:40.805Z,80.92
2018-12-29T17:35:10.067Z,80.90
2018-12-29T17:37:39.129Z,80.94
2018-12-29T17:40:08.193Z,80.97
2018-12-29T17:42:37.293Z,80.98
2018-12-29T17:45:06.361Z,80.99
2018-12-29T17:47:35.408Z,81.11
2018-12-29T17:50:04.515Z,81.09
2018-12-29T17:52:33.596Z,81.12
2018-12-29T17:55:02.673Z,81.06
2018-12-29T17:57:31.870Z,81.02
2018-12-29T18:00:00.960Z,81.00
2018-12-29T18:02:30.006Z,81.02
2018-12-29T18:04:59.097Z,80.98
2018-12-29T18:07:28.148Z,80.91
2018-12-29T18:09:57.546Z,80.92
2018-12-29T18:12:26.269Z,80.85
2018-12-29T18:14:55.337Z,80.79
2018-12-29T18:17:24.392Z,80.79
2018-12-29T18:19:53.599Z,80.76
2018-12-29T18:22:22.668Z,80.71
2018-12-29T18:24:51.721Z,80.68
2018-12-29T18:27:20.888Z,80.62
2018-12-29T18:29:49.945Z,80.52
2018-12-29T18:32:19.017Z,80.57
2018-12-29T18:34:48.113Z,80.63
2018-12-29T18:37:17.170Z,80.63
2018-12-29T18:39:46.240Z,80.67
2018-12-29T18:42:15.350Z,80.75
2018-12-29T18:44:44.422Z,80.91
2018-12-29T18:47:13.496Z,81.04
2018-12-29T18:49:42.604Z,81.00
2018-12-29T18:52:11.666Z,81.39
2018-12-29T18:54:40.722Z,81.38
2018-12-29T18:57:09.896Z,81.29
2018-12-29T18:59:38.958Z,81.18
2018-12-29T19:02:08.017Z,81.21
2018-12-29T19:04:37.123Z,81.19
2018-12-29T19:07:06.184Z,81.21
2018-12-29T19:09:35.263Z,81.22
2018-12-29T19:12:10.958Z,81.18
2018-12-29T19:14:33.428Z,81.23
2018-12-29T19:17:02.494Z,81.33
2018-12-29T19:19:31.892Z,81.40
2018-12-29T19:22:00.966Z,81.31
2018-12-29T19:24:30.126Z,81.37
2018-12-29T19:26:59.174Z,81.32
2018-12-29T19:29:28.237Z,81.25
2018-12-29T19:31:57.310Z,81.22
2018-12-29T19:34:26.400Z,81.22
2018-12-29T19:36:55.460Z,81.26
2018-12-29T19:39:24.527Z,81.27
2018-12-29T19:41:55.031Z,81.24
2018-12-29T19:44:22.705Z,81.25
2018-12-29T19:46:54.089Z,81.20
2018-12-29T19:49:23.818Z,81.27
2018-12-29T19:51:55.898Z,81.24
2018-12-29T19:54:28.142Z,81.23
2018-12-29T19:56:57.178Z,81.19
2018-12-29T19:59:26.238Z,81.20
2018-12-29T20:01:55.314Z,81.26
2018-12-29T20:04:24.378Z,81.32
2018-12-29T20:06:53.440Z,81.34
2018-12-29T20:09:23.271Z,81.42
2018-12-29T20:11:52.337Z,81.39
2018-12-29T20:14:21.392Z,81.40
2018-12-29T20:16:50.467Z,81.41
2018-12-29T20:19:19.527Z,81.44
2018-12-29T20:21:48.605Z,81.41
2018-12-29T20:24:17.692Z,81.42
2018-12-29T20:26:46.748Z,81.42
2018-12-29T20:29:15.813Z,81.42
2018-12-29T20:31:45.052Z,81.42
2018-12-29T20:34:14.105Z,81.38
2018-12-29T20:36:43.169Z,81.38
2018-12-29T20:39:12.251Z,81.41
2018-12-29T20:41:41.317Z,81.45
2018-12-29T20:44:10.378Z,81.43
2018-12-29T20:46:39.456Z,81.40
2018-12-29T20:49:08.505Z,81.42
2018-12-29T20:51:37.553Z,81.42
2018-12-29T20:54:06.665Z,81.38
2018-12-29T20:56:35.728Z,81.39
2018-12-29T20:59:04.788Z,81.37
2018-12-29T21:01:33.876Z,81.36
2018-12-29T21:04:02.928Z,81.33
2018-12-29T21:06:31.993Z,81.37
2018-12-29T21:09:01.088Z,81.35
2018-12-29T21:11:30.155Z,81.38
2018-12-29T21:13:59.207Z,81.37
2018-12-29T21:16:28.329Z,81.35
2018-12-29T21:18:57.407Z,81.38
2018-12-29T21:21:26.469Z,81.34
2018-12-29T21:23:55.627Z,81.26
2018-12-29T21:26:24.697Z,81.23
2018-12-29T21:28:53.762Z,81.19
2018-12-29T21:31:22.846Z,81.13
2018-12-29T21:33:51.910Z,81.10
2018-12-29T21:36:20.968Z,81.06
2018-12-29T21:38:50.063Z,81.02
2018-12-29T21:41:19.303Z,80.99
2018-12-29T21:43:48.357Z,80.95
2018-12-29T21:46:17.444Z,80.93
2018-12-29T21:48:46.497Z,80.83
2018-12-29T21:51:15.569Z,80.88
2018-12-29T21:53:44.658Z,80.84
2018-12-29T21:56:13.709Z,80.80
2018-12-29T21:58:42.765Z,80.72
2018-12-29T22:01:12.080Z,80.72
2018-12-29T22:03:41.140Z,80.68
2018-12-29T22:06:10.257Z,80.70
2018-12-29T22:08:39.288Z,80.66
2018-12-29T22:11:08.337Z,80.66
2018-12-29T22:13:37.390Z,80.63
2018-12-29T22:16:06.554Z,80.62
2018-12-29T22:18:35.618Z,80.60
2018-12-29T22:21:04.677Z,80.58
2018-12-29T22:23:51.333Z,80.56
2018-12-29T22:26:20.504Z,80.53
2018-12-29T22:28:49.571Z,80.43
2018-12-29T22:31:18.686Z,80.52
2018-12-29T22:33:47.769Z,80.49
2018-12-29T22:36:16.819Z,80.48
2018-12-29T22:38:45.907Z,80.44
2018-12-29T22:41:14.963Z,80.42
2018-12-29T22:43:44.029Z,80.40
2018-12-29T22:46:13.197Z,80.39
2018-12-29T22:48:42.263Z,80.41
2018-12-29T22:51:11.318Z,80.41
2018-12-29T22:53:40.407Z,80.44
2018-12-29T22:56:09.448Z,80.49
2018-12-29T22:58:38.518Z,80.50
2018-12-29T23:01:07.598Z,80.50
2018-12-29T23:03:36.677Z,80.50
2018-12-29T23:06:05.759Z,80.59
2018-12-29T23:08:34.953Z,80.61
2018-12-29T23:11:04.007Z,80.60
2018-12-29T23:13:33.069Z,80.60
2018-12-29T23:16:02.239Z,80.60
2018-12-29T23:18:31.288Z,80.62
2018-12-29T23:21:00.342Z,80.69
2018-12-29T23:23:29.422Z,80.69
2018-12-29T23:25:58.486Z,80.70
2018-12-29T23:28:27.548Z,80.73
2018-12-29T23:30:56.660Z,80.74
2018-12-29T23:33:25.717Z,80.72
2018-12-29T23:35:54.794Z,80.74
2018-12-29T23:38:23.878Z,80.74
2018-12-29T23:40:52.941Z,80.71
2018-12-29T23:43:25.658Z,80.70
2018-12-29T23:45:54.719Z,80.67
2018-12-29T23:48:23.766Z,80.65
2018-12-29T23:51:05.213Z,80.60
2018-12-29T23:53:21.944Z,80.61
2018-12-29T23:55:50.997Z,80.60
2018-12-29T23:58:20.080Z,80.57
